createdAt,value
2019-05-12T00:01:44.418Z,70.16
2019-05-12T00:04:18.691Z,70.22
2019-05-12T00:06:50.229Z,70.22
2019-05-12T00:09:22.302Z,69.42
2019-05-12T00:11:59.108Z,70.19
2019-05-12T00:14:39.180Z,70.42
2019-05-12T00:17:30.549Z,70.97
2019-05-12T00:20:02.637Z,71.75
2019-05-12T00:22:43.063Z,71.29
2019-05-12T00:25:15.006Z,71.70
2019-05-12T00:28:07.844Z,71.98
2019-05-12T00:30:44.859Z,71.74
2019-05-12T00:33:18.000Z,72.33
2019-05-12T00:35:50.249Z,71.40
2019-05-12T00:38:38.200Z,71.99
2019-05-12T00:41:11.618Z,72.15
2019-05-12T00:43:52.793Z,71.81
2019-05-12T00:46:32.763Z,71.85
2019-05-12T00:49:04.883Z,72.30
2019-05-12T00:51:42.415Z,73.09
2019-05-12T00:54:14.484Z,72.41
2019-05-12T00:56:48.169Z,72.03
2019-05-12T00:59:23.025Z,72.23
2019-05-12T01:01:58.580Z,71.96
2019-05-12T01:04:32.553Z,72.20
2019-05-12T01:07:08.727Z,71.66
2019-05-12T01:09:43.875Z,71.67
2019-05-12T01:12:18.011Z,72.46
2019-05-12T01:14:49.911Z,72.34
2019-05-12T01:17:28.302Z,72.74
2019-05-12T01:20:01.551Z,73.50
2019-05-12T01:22:50.579Z,73.92
2019-05-12T01:25:25.050Z,74.60
2019-05-12T01:27:58.864Z,75.10
2019-05-12T01:30:32.191Z,75.73
2019-05-12T01:33:08.509Z,76.16
2019-05-12T01:35:40.918Z,76.73
2019-05-12T01:38:14.187Z,76.62
2019-05-12T01:40:48.831Z,76.73
2019-05-12T01:43:23.046Z,74.82
2019-05-12T01:45:58.663Z,75.47
2019-05-12T01:48:37.833Z,76.14
2019-05-12T01:51:11.448Z,74.91
2019-05-12T01:53:48.234Z,75.30
2019-05-12T01:56:22.923Z,75.41
2019-05-12T01:58:58.367Z,74.59
2019-05-12T02:01:30.907Z,75.56
2019-05-12T02:04:07.566Z,75.60
2019-05-12T02:06:38.953Z,75.12
2019-05-12T02:09:21.043Z,74.42
2019-05-12T02:11:54.425Z,74.46
2019-05-12T02:14:27.589Z,74.37
2019-05-12T02:17:10.127Z,74.42
2019-05-12T02:19:43.755Z,74.87
2019-05-12T02:22:19.028Z,75.18
2019-05-12T02:24:53.856Z,74.22
2019-05-12T02:27:28.560Z,73.74
2019-05-12T02:30:00.538Z,74.46
2019-05-12T02:32:40.835Z,74.55
2019-05-12T02:35:06.596Z,74.03
2019-05-12T02:37:39.986Z,74.22
2019-05-12T02:40:15.113Z,74.38
2019-05-12T02:42:46.644Z,74.78
2019-05-12T02:45:18.866Z,74.09
2019-05-12T02:47:50.838Z,75.48
2019-05-12T02:50:36.492Z,74.08
2019-05-12T02:53:09.321Z,73.57
2019-05-12T02:55:45.179Z,74.47
2019-05-12T02:58:21.039Z,74.31
2019-05-12T03:00:55.014Z,74.73
2019-05-12T03:06:21.257Z,76.32
2019-05-12T03:08:55.062Z,76.10
2019-05-12T03:11:27.565Z,76.10
2019-05-12T03:13:59.586Z,75.88
2019-05-12T03:16:40.606Z,75.00
2019-05-12T03:19:14.988Z,75.89
2019-05-12T03:21:46.294Z,76.25
2019-05-12T03:24:39.759Z,76.65
2019-05-12T03:27:18.282Z,76.16
2019-05-12T03:29:55.231Z,76.47
2019-05-12T03:32:28.220Z,76.91
2019-05-12T03:35:00.413Z,77.46
2019-05-12T03:37:35.194Z,78.19
2019-05-12T03:40:06.316Z,78.30
2019-05-12T03:42:38.222Z,77.74
2019-05-12T03:45:10.128Z,78.59
2019-05-12T03:47:45.607Z,78.41
2019-05-12T03:50:16.059Z,78.73
2019-05-12T03:52:51.049Z,79.33
2019-05-12T03:55:35.431Z,78.18
2019-05-12T03:58:09.464Z,78.75
2019-05-12T04:00:48.652Z,78.35
2019-05-12T04:03:26.265Z,78.88
2019-05-12T04:05:58.321Z,78.59
2019-05-12T04:08:34.700Z,78.46
2019-05-12T04:11:08.951Z,79.18
2019-05-12T04:13:45.159Z,78.91
2019-05-12T04:16:24.371Z,79.06
2019-05-12T04:18:58.380Z,79.98
2019-05-12T04:21:30.310Z,79.96
2019-05-12T04:24:05.325Z,80.52
2019-05-12T04:26:37.041Z,80.24
2019-05-12T04:29:08.977Z,79.89
2019-05-12T04:31:44.100Z,80.01
2019-05-12T04:34:18.958Z,80.46
2019-05-12T04:36:48.441Z,80.59
2019-05-12T04:39:20.377Z,80.75
2019-05-12T04:41:55.156Z,81.03
2019-05-12T04:44:27.601Z,82.07
2019-05-12T04:46:59.591Z,81.38
2019-05-12T04:49:34.592Z,80.88
2019-05-12T04:52:07.206Z,80.92
2019-05-12T04:54:39.628Z,81.07
2019-05-12T04:57:14.702Z,80.25
2019-05-12T04:59:45.861Z,80.67
2019-05-12T05:02:17.654Z,81.09
2019-05-12T05:04:49.434Z,81.10
2019-05-12T05:07:24.179Z,80.61
2019-05-12T05:09:55.141Z,81.23
2019-05-12T05:12:26.925Z,80.86
2019-05-12T05:14:58.809Z,81.45
2019-05-12T05:17:30.647Z,81.31
2019-05-12T05:20:04.109Z,80.81
2019-05-12T05:22:38.046Z,80.57
2019-05-12T05:25:09.678Z,81.50
2019-05-12T05:27:41.536Z,81.26
2019-05-12T05:30:13.936Z,81.09
2019-05-12T05:32:45.858Z,82.27
2019-05-12T05:35:17.639Z,81.69
2019-05-12T05:37:49.440Z,81.09
2019-05-12T05:40:28.413Z,81.20
2019-05-12T05:42:55.067Z,82.19
2019-05-12T05:45:26.854Z,81.54
2019-05-12T05:47:59.586Z,81.30
2019-05-12T05:50:33.893Z,82.11
2019-05-12T05:53:09.209Z,81.79
2019-05-12T05:55:40.245Z,82.66
2019-05-12T05:58:12.027Z,82.70
2019-05-12T06:00:44.129Z,83.36
2019-05-12T06:03:23.073Z,82.99
2019-05-12T06:05:50.382Z,82.46
2019-05-12T06:08:23.739Z,82.34
2019-05-12T06:10:55.659Z,82.77
2019-05-12T06:13:31.851Z,83.29
2019-05-12T06:16:01.641Z,83.13
2019-05-12T06:18:33.572Z,83.52
2019-05-12T06:21:05.399Z,83.55
2019-05-12T06:23:39.258Z,83.12
2019-05-12T06:26:10.860Z,83.57
2019-05-12T06:28:43.945Z,84.07
2019-05-12T06:31:18.891Z,84.17
2019-05-12T06:33:49.528Z,84.14
2019-05-12T06:36:22.618Z,84.34
2019-05-12T06:38:55.059Z,84.03
2019-05-12T06:41:26.861Z,84.24
2019-05-12T06:43:58.747Z,84.48
2019-05-12T06:46:30.650Z,84.66
2019-05-12T06:49:10.215Z,84.58
2019-05-12T06:51:36.036Z,84.52
2019-05-12T06:54:11.931Z,84.63
2019-05-12T06:56:43.413Z,85.02
2019-05-12T06:59:15.048Z,84.70
2019-05-12T07:01:49.809Z,85.12
2019-05-12T07:04:23.396Z,85.89
2019-05-12T07:06:56.037Z,85.30
2019-05-12T07:09:29.483Z,84.91
2019-05-12T07:12:03.891Z,85.29
2019-05-12T07:14:35.216Z,85.04
2019-05-12T07:17:23.903Z,84.95
2019-05-12T07:19:58.156Z,85.48
2019-05-12T07:22:31.262Z,85.21
2019-05-12T07:25:04.549Z,85.64
2019-05-12T07:27:39.742Z,84.56
2019-05-12T07:30:10.757Z,85.22
2019-05-12T07:32:43.376Z,85.27
2019-05-12T07:35:15.400Z,84.47
2019-05-12T07:37:48.210Z,84.26
2019-05-12T07:40:25.646Z,84.45
2019-05-12T07:42:54.493Z,84.51
2019-05-12T07:45:28.022Z,85.04
2019-05-12T07:48:05.608Z,85.24
2019-05-12T07:50:34.862Z,84.93
2019-05-12T07:53:07.063Z,85.15
2019-05-12T07:55:39.757Z,84.32
2019-05-12T07:58:16.526Z,84.93
2019-05-12T08:00:46.383Z,84.36
2019-05-12T08:03:21.158Z,84.58
2019-05-12T08:05:57.443Z,85.29
2019-05-12T08:08:25.770Z,84.70
2019-05-12T08:10:57.802Z,84.79
2019-05-12T08:13:31.140Z,85.48
2019-05-12T08:16:03.686Z,84.14
2019-05-12T08:18:41.034Z,84.97
2019-05-12T08:21:10.334Z,84.61
2019-05-12T08:23:44.269Z,84.03
2019-05-12T08:26:18.574Z,84.50
2019-05-12T08:28:49.542Z,83.94
2019-05-12T08:31:23.387Z,84.47
2019-05-12T08:33:55.175Z,85.17
2019-05-12T08:36:27.006Z,84.55
2019-05-12T08:38:58.879Z,83.80
2019-05-12T08:41:30.694Z,83.52
2019-05-12T08:44:04.644Z,83.70
2019-05-12T08:46:36.134Z,83.75
2019-05-12T08:49:08.557Z,83.29
2019-05-12T08:51:40.837Z,83.81
2019-05-12T08:54:14.206Z,83.26
2019-05-12T08:56:51.025Z,83.08
2019-05-12T08:59:24.919Z,82.74
2019-05-12T09:01:54.076Z,82.31
2019-05-12T09:04:26.046Z,83.30
2019-05-12T09:06:59.822Z,83.43
2019-05-12T09:09:33.718Z,83.20
2019-05-12T09:12:05.836Z,84.14
2019-05-12T09:14:41.259Z,83.11
2019-05-12T09:17:11.287Z,84.04
2019-05-12T09:19:44.621Z,82.51
2019-05-12T09:22:20.902Z,83.77
2019-05-12T09:24:53.270Z,83.77
2019-05-12T09:27:25.457Z,83.72
2019-05-12T09:30:08.148Z,83.47
2019-05-12T09:32:39.072Z,83.41
2019-05-12T09:35:10.535Z,84.51
2019-05-12T09:37:44.150Z,83.13
2019-05-12T09:40:20.704Z,83.40
2019-05-12T09:42:49.724Z,83.38
2019-05-12T09:45:21.611Z,82.78
2019-05-12T09:47:54.005Z,82.73
2019-05-12T09:50:26.003Z,82.08
2019-05-12T09:53:00.850Z,82.41
2019-05-12T09:55:31.435Z,81.87
2019-05-12T09:58:04.045Z,81.70
2019-05-12T10:00:37.631Z,81.40
2019-05-12T10:03:09.690Z,82.14
2019-05-12T10:05:44.010Z,81.82
2019-05-12T10:08:17.746Z,81.08
2019-05-12T10:10:56.144Z,81.27
2019-05-12T10:13:30.016Z,81.42
2019-05-12T10:16:04.953Z,81.80
2019-05-12T10:18:35.167Z,83.14
2019-05-12T10:21:10.189Z,81.57
2019-05-12T10:23:40.547Z,81.44
2019-05-12T10:26:14.694Z,82.52
2019-05-12T10:28:51.831Z,82.92
2019-05-12T10:31:19.414Z,82.02
2019-05-12T10:33:55.036Z,82.65
2019-05-12T10:36:24.748Z,82.46
2019-05-12T10:38:56.626Z,81.27
2019-05-12T10:41:28.744Z,81.44
2019-05-12T10:44:00.613Z,81.45
2019-05-12T10:46:32.433Z,80.85
2019-05-12T10:49:04.309Z,80.96
2019-05-12T10:51:37.166Z,80.78
2019-05-12T10:54:13.180Z,79.51
2019-05-12T10:56:43.815Z,77.51
2019-05-12T10:59:29.061Z,78.25
2019-05-12T11:01:49.315Z,78.03
2019-05-12T11:04:25.006Z,78.55
2019-05-12T11:06:54.836Z,79.00
2019-05-12T11:09:31.626Z,76.81
2019-05-12T11:12:03.393Z,78.33
2019-05-12T11:14:35.166Z,77.41
2019-05-12T11:17:09.628Z,76.34
2019-05-12T11:19:47.191Z,77.74
2019-05-12T11:22:15.567Z,76.56
2019-05-12T11:24:52.412Z,77.81
2019-05-12T11:27:24.061Z,76.78
2019-05-12T11:29:56.371Z,74.68
2019-05-12T11:32:36.400Z,74.97
2019-05-12T11:35:04.176Z,74.24
2019-05-12T11:37:36.116Z,73.09
2019-05-12T11:40:08.140Z,74.89
2019-05-12T11:42:41.037Z,74.14
2019-05-12T11:45:13.582Z,71.49
2019-05-12T11:47:45.609Z,73.51
2019-05-12T11:50:17.532Z,73.15
2019-05-12T11:52:51.111Z,73.70
2019-05-12T11:55:29.789Z,73.55
2019-05-12T11:58:00.368Z,71.86
2019-05-12T12:00:33.622Z,72.44
2019-05-12T12:03:12.489Z,70.76
2019-05-12T12:05:39.291Z,71.47
2019-05-12T12:08:11.327Z,70.96
2019-05-12T12:10:43.149Z,71.05
2019-05-12T12:13:19.328Z,69.28
2019-05-12T12:15:49.709Z,67.63
2019-05-12T12:18:23.616Z,69.78
2019-05-12T12:21:02.624Z,66.25
2019-05-12T12:23:28.728Z,67.05
2019-05-12T12:26:01.156Z,69.44
2019-05-12T12:28:34.410Z,67.31
2019-05-12T12:31:07.817Z,69.97
2019-05-12T12:33:41.028Z,68.31
2019-05-12T12:36:14.490Z,71.19
2019-05-12T12:38:46.497Z,69.73
2019-05-12T12:41:18.398Z,70.42
2019-05-12T12:43:50.276Z,70.07
2019-05-12T12:46:28.080Z,68.32
2019-05-12T12:49:05.415Z,69.34
2019-05-12T12:51:34.278Z,70.52
2019-05-12T12:54:06.161Z,68.58
2019-05-12T12:56:38.056Z,69.32
2019-05-12T12:59:11.801Z,68.52
2019-05-12T13:01:44.250Z,70.30
2019-05-12T13:04:17.142Z,68.89
2019-05-12T13:06:49.014Z,70.00
2019-05-12T13:09:24.421Z,70.05
2019-05-12T13:11:54.445Z,70.93
2019-05-12T13:14:28.744Z,72.36
2019-05-12T13:17:00.243Z,70.48
2019-05-12T13:19:33.272Z,72.38
2019-05-12T13:22:08.959Z,69.07
2019-05-12T13:24:38.839Z,69.17
2019-05-12T13:27:10.727Z,68.42
2019-05-12T13:29:43.554Z,69.08
2019-05-12T13:32:15.456Z,68.60
2019-05-12T13:34:47.691Z,68.84
2019-05-12T13:37:19.699Z,68.12
2019-05-12T13:39:56.811Z,68.76
2019-05-12T13:42:25.054Z,68.72
2019-05-12T13:44:57.259Z,68.01
2019-05-12T13:47:34.302Z,67.92
2019-05-12T13:50:04.071Z,69.03
2019-05-12T13:52:36.079Z,67.85
2019-05-12T13:55:08.951Z,67.68
2019-05-12T13:57:46.574Z,68.05
2019-05-12T14:00:14.466Z,65.02
2019-05-12T14:02:48.944Z,67.41
2019-05-12T14:05:19.907Z,66.34
2019-05-12T14:07:55.675Z,64.21
2019-05-12T14:10:26.712Z,65.91
2019-05-12T14:12:58.530Z,64.37
2019-05-12T14:15:30.424Z,59.88
2019-05-12T14:18:03.425Z,62.07
2019-05-12T14:20:35.365Z,60.73
2019-05-12T14:23:07.443Z,60.44
2019-05-12T14:25:40.328Z,59.04
2019-05-12T14:28:16.254Z,61.12
2019-05-12T14:30:49.700Z,56.80
2019-05-12T14:33:19.757Z,57.84
2019-05-12T14:35:53.714Z,57.16
2019-05-12T14:38:29.653Z,58.15
2019-05-12T14:41:01.313Z,58.15
2019-05-12T14:43:34.127Z,56.82
2019-05-12T14:46:10.190Z,57.28
2019-05-12T14:48:47.843Z,56.89
2019-05-12T14:51:14.104Z,54.64
2019-05-12T14:53:48.023Z,54.64
2019-05-12T14:56:19.604Z,54.93
2019-05-12T14:58:56.497Z,54.86
2019-05-12T15:01:38.470Z,51.06
2019-05-12T15:03:59.547Z,54.23
2019-05-12T15:06:31.356Z,53.35
2019-05-12T15:09:04.442Z,51.43
2019-05-12T15:11:36.426Z,49.06
2019-05-12T15:14:08.316Z,46.26
2019-05-12T15:16:41.976Z,45.01
2019-05-12T15:19:14.053Z,44.10
2019-05-12T15:21:46.106Z,45.52
2019-05-12T15:24:19.087Z,45.52
2019-05-12T15:26:59.035Z,44.45
2019-05-12T15:29:24.574Z,45.23
2019-05-12T15:31:57.298Z,46.53
2019-05-12T15:34:29.243Z,47.15
2019-05-12T15:37:01.188Z,47.54
2019-05-12T15:39:33.641Z,46.39
2019-05-12T15:42:05.551Z,47.69
2019-05-12T15:44:37.444Z,46.78
2019-05-12T15:47:09.315Z,48.88
2019-05-12T15:49:41.125Z,48.01
2019-05-12T15:52:14.261Z,47.67
2019-05-12T15:54:50.989Z,49.24
2019-05-12T15:57:19.873Z,49.49
2019-05-12T15:59:53.975Z,46.93
2019-05-12T16:02:25.233Z,49.41
2019-05-12T16:04:57.279Z,49.58
2019-05-12T16:07:29.737Z,48.70
2019-05-12T16:10:04.273Z,47.69
2019-05-12T16:12:36.265Z,47.70
2019-05-12T16:15:11.401Z,48.85
2019-05-12T16:17:44.040Z,48.11
2019-05-12T16:20:16.199Z,47.71
2019-05-12T16:22:48.059Z,47.86
2019-05-12T16:25:25.866Z,48.51
2019-05-12T16:27:53.746Z,48.69
2019-05-12T16:30:27.122Z,51.36
2019-05-12T16:32:59.298Z,50.68
2019-05-12T16:35:31.913Z,51.68
2019-05-12T16:38:05.855Z,51.56
2019-05-12T16:40:39.569Z,53.00
2019-05-12T16:43:14.295Z,52.20
2019-05-12T16:45:45.566Z,53.25
2019-05-12T16:48:29.429Z,54.51
2019-05-12T16:50:50.918Z,53.84
2019-05-12T16:53:27.719Z,54.39
2019-05-12T16:55:57.197Z,53.74
2019-05-12T16:58:33.136Z,54.63
2019-05-12T17:01:03.783Z,55.08
2019-05-12T17:03:35.804Z,55.45
2019-05-12T17:06:07.804Z,54.83
2019-05-12T17:08:39.662Z,55.45
2019-05-12T17:11:24.358Z,56.68
2019-05-12T17:13:47.357Z,56.58
2019-05-12T17:16:18.589Z,56.62
2019-05-12T17:18:50.379Z,58.93
2019-05-12T17:21:24.065Z,59.53
2019-05-12T17:23:55.688Z,59.53
2019-05-12T17:26:27.754Z,59.50
2019-05-12T17:29:01.611Z,59.50
2019-05-12T17:31:33.858Z,59.38
2019-05-12T17:34:09.084Z,59.27
2019-05-12T17:36:39.863Z,59.62
2019-05-12T17:39:13.923Z,60.76
2019-05-12T17:41:46.544Z,60.76
2019-05-12T17:44:22.548Z,60.61
2019-05-12T17:46:58.932Z,61.00
2019-05-12T17:49:31.276Z,62.35
2019-05-12T17:52:12.485Z,61.90
2019-05-12T17:54:36.664Z,62.63
2019-05-12T17:57:09.431Z,62.63
2019-05-12T17:59:44.737Z,62.49
2019-05-12T18:02:17.057Z,63.25
2019-05-12T18:04:49.995Z,64.55
2019-05-12T18:07:23.826Z,65.23
2019-05-12T18:10:00.592Z,65.23
2019-05-12T18:12:36.583Z,63.43
2019-05-12T18:15:06.048Z,64.10
2019-05-12T18:17:39.095Z,65.41
2019-05-12T18:20:13.783Z,66.33
2019-05-12T18:22:47.111Z,66.98
2019-05-12T18:25:21.910Z,67.08
2019-05-12T18:27:54.255Z,67.31
2019-05-12T18:30:26.333Z,68.17
2019-05-12T18:33:04.620Z,68.59
2019-05-12T18:35:35.838Z,68.86
2019-05-12T18:38:18.198Z,69.05
2019-05-12T18:40:43.212Z,69.13
2019-05-12T18:43:15.140Z,69.30
2019-05-12T18:45:54.981Z,69.36
2019-05-12T18:48:25.002Z,69.43
2019-05-12T18:50:55.773Z,69.72
2019-05-12T18:53:31.969Z,69.97
2019-05-12T18:56:04.419Z,69.83
2019-05-12T18:58:35.595Z,70.57
2019-05-12T19:01:07.782Z,70.52
2019-05-12T19:03:49.713Z,71.11
2019-05-12T19:06:14.111Z,70.71
2019-05-12T19:08:46.110Z,71.10
2019-05-12T19:11:22.728Z,71.17
2019-05-12T19:13:56.840Z,71.37
2019-05-12T19:16:25.131Z,71.55
2019-05-12T19:18:57.098Z,72.40
2019-05-12T19:21:30.697Z,72.63
2019-05-12T19:24:03.604Z,72.11
2019-05-12T19:26:38.419Z,72.40
2019-05-12T19:29:09.206Z,71.70
2019-05-12T19:31:45.221Z,72.43
2019-05-12T19:34:22.254Z,72.83
2019-05-12T19:36:49.610Z,72.74
2019-05-12T19:39:25.123Z,72.79
2019-05-12T19:41:55.097Z,72.79
2019-05-12T19:44:30.690Z,73.16
2019-05-12T19:47:00.643Z,72.89
2019-05-12T19:49:44.165Z,72.71
2019-05-12T19:52:07.568Z,73.37
2019-05-12T19:54:44.374Z,73.46
2019-05-12T19:57:21.868Z,73.28
2019-05-12T19:59:53.366Z,73.51
2019-05-12T20:02:25.125Z,73.37
2019-05-12T20:04:57.038Z,73.23
2019-05-12T20:07:29.047Z,73.81
2019-05-12T20:10:01.048Z,73.25
2019-05-12T20:12:34.340Z,73.08
2019-05-12T20:15:07.417Z,73.17
2019-05-12T20:17:39.399Z,73.49
2019-05-12T20:20:13.695Z,73.59
2019-05-12T20:22:46.146Z,73.49
2019-05-12T20:25:18.140Z,74.15
2019-05-12T20:27:56.177Z,74.43
2019-05-12T20:30:28.112Z,74.11
2019-05-12T20:33:00.892Z,74.74
2019-05-12T20:35:33.811Z,74.89
2019-05-12T20:38:05.826Z,75.15
2019-05-12T20:40:39.851Z,75.13
2019-05-12T20:43:14.613Z,74.81
2019-05-12T20:45:45.862Z,75.08
2019-05-12T20:48:19.588Z,75.00
2019-05-12T20:50:51.262Z,74.64
2019-05-12T20:53:31.583Z,74.66
2019-05-12T20:55:56.650Z,74.98
2019-05-12T20:58:37.421Z,75.52
2019-05-12T21:01:05.162Z,75.50
2019-05-12T21:03:39.725Z,75.51
2019-05-12T21:06:09.906Z,75.60
2019-05-12T21:08:45.019Z,76.15
2019-05-12T21:11:15.238Z,76.13
2019-05-12T21:13:47.115Z,75.77
2019-05-12T21:16:25.221Z,75.87
2019-05-12T21:19:02.105Z,75.69
2019-05-12T21:21:33.396Z,75.89
2019-05-12T21:23:59.746Z,76.12
2019-05-12T21:26:34.695Z,75.59
2019-05-12T21:29:05.420Z,75.83
2019-05-12T21:31:37.190Z,75.51
2019-05-12T21:34:13.067Z,75.29
2019-05-12T21:36:44.329Z,75.51
2019-05-12T21:39:16.172Z,75.68
2019-05-12T21:41:52.029Z,75.90
2019-05-12T21:44:24.525Z,75.86
2019-05-12T21:47:02.667Z,76.25
2019-05-12T21:49:29.779Z,77.12
2019-05-12T21:52:04.196Z,76.55
2019-05-12T21:54:39.411Z,76.19
2019-05-12T21:57:08.991Z,75.57
2019-05-12T21:59:40.856Z,76.71
2019-05-12T22:02:14.687Z,75.46
2019-05-12T22:04:46.332Z,74.52
2019-05-12T22:07:18.204Z,73.15
2019-05-12T22:09:50.075Z,72.22
2019-05-12T22:12:23.460Z,70.89
2019-05-12T22:14:55.511Z,71.14
2019-05-12T22:17:30.448Z,69.76
2019-05-12T22:20:08.473Z,68.44
2019-05-12T22:22:36.039Z,69.21
2019-05-12T22:25:09.674Z,67.83
2019-05-12T22:27:42.576Z,68.01
2019-05-12T22:30:14.385Z,67.39
2019-05-12T22:32:46.244Z,67.90
2019-05-12T22:35:21.914Z,67.14
2019-05-12T22:37:53.532Z,65.81
2019-05-12T22:40:25.533Z,66.00
2019-05-12T22:43:01.321Z,66.88
2019-05-12T22:45:36.093Z,66.76
2019-05-12T22:48:04.628Z,66.79
2019-05-12T22:50:36.510Z,66.67
2019-05-12T22:53:08.380Z,67.23
2019-05-12T22:55:40.254Z,67.15
2019-05-12T22:58:20.727Z,67.49
2019-05-12T23:00:45.744Z,67.60
2019-05-12T23:03:17.626Z,68.41
2019-05-12T23:05:50.771Z,67.19
2019-05-12T23:08:24.649Z,67.82
2019-05-12T23:10:57.682Z,67.70
2019-05-12T23:13:32.363Z,67.33
2019-05-12T23:16:03.617Z,68.57
2019-05-12T23:18:35.544Z,68.36
2019-05-12T23:21:13.631Z,68.02
2019-05-12T23:23:41.908Z,67.47
2019-05-12T23:26:14.208Z,67.88
2019-05-12T23:28:50.348Z,66.77
2019-05-12T23:31:28.485Z,67.77
2019-05-12T23:33:54.362Z,68.99
2019-05-12T23:36:35.563Z,68.43
2019-05-12T23:39:01.990Z,68.05
2019-05-12T23:41:34.396Z,67.58
2019-05-12T23:44:06.431Z,68.17
2019-05-12T23:46:38.287Z,68.40
2019-05-12T23:49:10.096Z,67.57
2019-05-12T23:51:43.873Z,69.07
2019-05-12T23:54:15.405Z,68.42
2019-05-12T23:56:47.192Z,67.89
2019-05-12T23:59:18.989Z,67.72
